LGKO/KGS METAR and TAF weather

Enter ICAO airport designator
Station Type Date Time Source
LGKO METAR 2018/12/13 05:50 UTC NOAA

LGKO 130550Z VRB03KT 9999 FEW030 06/00 Q1022


Station Type Date Time Source
LGKO Decoded METAR 2018/12/13 05:50 UTC NOAA

Kos Airport , Greece (LGKO) 36-47N 027-04E
Dec 13, 2018 - 12:50 AM EST / 2018.12.13 0550 UTC
Wind: Variable at 3 MPH (3 KT):0
Visibility: greater than 7 mile(s):0
Sky conditions: mostly clear
Temperature: 42 F (6 C)
Dew Point: 32 F (0 C)
Relative Humidity: 65%
Pressure (altimeter): 30.18 in. Hg (1022 hPa)
ob: LGKO 130550Z VRB03KT 9999 FEW030 06/00 Q1022
cycle: 6

Station Type Date Time Source
LGKO TAF 2018/12/13 06:12 UTC NOAA

TAF LGKO 130500Z 1306/1406 17010KT 9999 SCT030 PROB40
TEMPO 1312/1324 5000 RA BKN030 PROB30
TEMPO 1315/1321 3000 TSRA SCT010 SCT018CB BKN020 OVC030
BECMG 1312/1314 18017G27KT
BECMG 1316/1318 24013KT


Example: see airport list